Time;durP1;ratioP1;P1;durP2;ratioP2;P2;SDS_P1;SDS_P2;PMS_P1;PMS_P2;Temp;Humidity;BMP_temperature;BMP_pressure;BME280_temperature;BME280_humidity;BME280_pressure;Samples;Min_cycle;Max_cycle;Signal;HPM_P1;HPM_P2
2022/04/26 03:36:11;;;;;;;31.83;18.77;;;3.70;99.90;;;;;;4983692;28;20220;-80
2022/04/26 03:38:41;;;;;;;34.33;18.43;;;3.80;99.90;;;;;;4985518;28;20212;-80
2022/04/26 03:41:08;;;;;;;31.07;17.60;;;3.60;99.90;;;;;;4984575;28;20235;-84
2022/04/26 03:43:35;;;;;;;31.60;17.97;;;3.60;99.90;;;;;;4984414;28;20230;-83
2022/04/26 03:46:02;;;;;;;35.03;20.67;;;3.60;99.90;;;;;;4984328;28;20249;-83
2022/04/26 03:48:30;;;;;;;31.60;19.13;;;3.60;99.90;;;;;;4982550;28;20274;-82
2022/04/26 03:50:57;;;;;;;29.97;17.80;;;3.70;99.90;;;;;;4983694;28;20587;-84
2022/04/26 03:53:24;;;;;;;27.20;16.10;;;3.70;99.90;;;;;;4985209;28;20236;-81
2022/04/26 03:55:51;;;;;;;25.03;15.23;;;3.70;99.90;;;;;;4983566;28;20224;-83
2022/04/26 03:58:18;;;;;;;30.20;15.30;;;3.80;99.90;;;;;;4985061;28;20296;-82
2022/04/26 04:00:45;;;;;;;31.20;14.40;;;3.80;99.90;;;;;;4984964;28;20197;-82
2022/04/26 04:03:11;;;;;;;26.53;15.23;;;3.70;99.90;;;;;;4986087;28;20285;-82
2022/04/26 04:05:42;;;;;;;27.67;13.87;;;3.70;99.90;;;;;;4985195;28;20232;-82
2022/04/26 04:08:09;;;;;;;34.00;14.00;;;3.80;99.90;;;;;;4987471;28;20662;-81
2022/04/26 04:10:36;;;;;;;38.07;14.37;;;3.70;99.90;;;;;;4986913;28;20699;-83
2022/04/26 04:13:03;;;;;;;28.90;13.47;;;3.80;99.90;;;;;;4987393;28;20280;-81
2022/04/26 04:15:29;;;;;;;26.10;12.87;;;3.70;99.90;;;;;;4985624;28;20308;-80
2022/04/26 04:17:56;;;;;;;34.27;14.10;;;3.70;99.90;;;;;;4985727;28;20197;-82
2022/04/26 04:20:23;;;;;;;37.30;13.70;;;3.70;99.90;;;;;;4986143;28;20205;-80
2022/04/26 04:22:53;;;;;;;30.33;13.50;;;3.80;99.90;;;;;;4985650;28;20829;-80
2022/04/26 04:25:20;;;;;;;28.43;13.70;;;3.50;99.90;;;;;;4987096;28;20226;-80
2022/04/26 04:27:47;;;;;;;26.37;14.07;;;3.60;99.90;;;;;;4989115;28;20648;-81
2022/04/26 04:30:14;;;;;;;25.67;13.83;;;3.60;99.90;;;;;;4991019;28;20209;-85
2022/04/26 04:32:41;;;;;;;23.17;13.37;;;3.60;99.90;;;;;;4989635;28;20212;-84
2022/04/26 04:35:09;;;;;;;20.23;13.03;;;3.60;99.90;;;;;;4988471;28;20700;-82
2022/04/26 04:37:36;;;;;;;22.43;13.07;;;3.70;99.90;;;;;;4988010;28;20284;-79
2022/04/26 04:40:05;;;;;;;24.33;12.70;;;3.60;99.90;;;;;;4987253;28;20206;-79
2022/04/26 04:42:32;;;;;;;26.70;13.20;;;3.50;99.90;;;;;;4987332;28;20269;-79
2022/04/26 04:44:59;;;;;;;20.57;12.77;;;3.20;99.90;;;;;;4986026;28;20724;-79
2022/04/26 04:47:27;;;;;;;20.63;13.93;;;3.50;99.90;;;;;;4984367;28;20265;-80
2022/04/26 04:49:54;;;;;;;21.57;14.53;;;3.80;99.90;;;;;;4984739;28;20622;-79
2022/04/26 04:52:20;;;;;;;21.00;13.53;;;3.80;99.90;;;;;;4985199;28;20292;-78
2022/04/26 04:54:47;;;;;;;19.63;13.70;;;4.00;99.90;;;;;;4983324;28;20292;-79
2022/04/26 04:57:15;;;;;;;20.67;13.30;;;4.60;99.90;;;;;;4984022;28;20217;-79
2022/04/26 04:59:42;;;;;;;20.43;14.00;;;4.80;99.90;;;;;;4983867;28;20300;-78
2022/04/26 05:02:09;;;;;;;20.97;14.63;;;5.20;99.90;;;;;;4983679;28;20304;-78
2022/04/26 05:04:36;;;;;;;21.77;13.93;;;5.40;99.90;;;;;;4965986;28;20226;-78
2022/04/26 05:07:04;;;;;;;22.27;14.77;;;5.90;99.90;;;;;;4985173;28;20244;-81
2022/04/26 05:09:31;;;;;;;23.07;14.73;;;6.50;99.90;;;;;;4985276;28;20233;-84
2022/04/26 05:11:58;;;;;;;23.10;15.63;;;7.00;99.90;;;;;;4986802;28;20698;-80
2022/04/26 05:14:26;;;;;;;23.03;15.83;;;7.20;99.90;;;;;;4984218;28;20248;-81
2022/04/26 05:16:53;;;;;;;22.83;15.33;;;7.40;99.90;;;;;;4985112;28;20233;-82
2022/04/26 05:19:20;;;;;;;23.93;15.50;;;6.80;99.90;;;;;;4984322;28;20202;-83
2022/04/26 05:21:47;;;;;;;22.77;15.77;;;7.00;99.90;;;;;;4984930;28;20653;-82
2022/04/26 05:26:58;;;;;;;24.83;16.00;;;7.10;99.90;;;;;;4989417;28;20216;-85
2022/04/26 05:29:26;;;;;;;22.40;15.37;;;7.40;99.90;;;;;;4977972;28;20217;-83
2022/04/26 05:31:54;;;;;;;23.07;15.67;;;7.90;99.90;;;;;;4981381;28;20237;-80
2022/04/26 05:34:21;;;;;;;21.00;15.47;;;8.30;99.90;;;;;;4979307;28;20218;-86
2022/04/26 05:36:48;;;;;;;21.33;14.60;;;8.20;99.90;;;;;;4982542;28;20293;-81
2022/04/26 05:39:14;;;;;;;21.30;15.27;;;7.60;99.90;;;;;;4975269;28;20300;-80
2022/04/26 05:41:41;;;;;;;22.77;15.93;;;7.30;99.90;;;;;;4983298;28;20205;-81
2022/04/26 05:44:08;;;;;;;22.67;15.30;;;6.80;1.00;;;;;;4979997;28;20226;-80
2022/04/26 05:46:37;;;;;;;23.13;14.67;;;6.70;99.90;;;;;;4982002;28;20280;-83
2022/04/26 05:49:04;;;;;;;24.97;16.97;;;6.50;99.90;;;;;;4980393;28;20221;-83
2022/04/26 05:51:31;;;;;;;25.67;16.70;;;6.50;99.90;;;;;;4978092;28;20288;-80
2022/04/26 05:53:58;;;;;;;22.40;14.63;;;6.70;99.90;;;;;;4983573;28;20225;-84
2022/04/26 05:56:25;;;;;;;24.33;17.60;;;7.00;99.90;;;;;;4975965;28;20213;-82
2022/04/26 05:58:52;;;;;;;24.43;17.03;;;6.90;99.90;;;;;;4980641;28;20304;-85
2022/04/26 06:01:19;;;;;;;23.47;16.93;;;6.70;99.90;;;;;;4976801;28;20202;-82
2022/04/26 06:03:47;;;;;;;30.43;17.37;;;6.70;99.90;;;;;;4979308;28;20272;-83
2022/04/26 06:06:14;;;;;;;26.90;16.87;;;6.60;99.90;;;;;;4981069;28;20206;-80
2022/04/26 06:08:41;;;;;;;24.17;17.40;;;6.80;99.90;;;;;;4978852;28;20269;-86
2022/04/26 06:11:08;;;;;;;24.83;16.23;;;6.90;99.90;;;;;;4968982;28;20210;-83
2022/04/26 06:13:35;;;;;;;25.57;17.43;;;7.20;99.90;;;;;;4980320;28;20208;-84
2022/04/26 06:16:02;;;;;;;27.03;18.70;;;7.40;99.90;;;;;;4974046;28;20273;-81
2022/04/26 06:18:28;;;;;;;29.07;18.33;;;7.20;99.90;;;;;;4978818;28;20334;-80
2022/04/26 06:20:56;;;;;;;26.57;18.03;;;7.10;99.90;;;;;;4977920;28;20237;-82
2022/04/26 06:23:23;;;;;;;26.43;17.33;;;7.20;99.90;;;;;;4974894;28;20308;-83
2022/04/26 06:25:50;;;;;;;28.30;18.73;;;7.00;99.90;;;;;;4975897;28;20700;-80
2022/04/26 06:28:17;;;;;;;27.03;17.33;;;6.90;99.90;;;;;;4975222;28;20293;-85
2022/04/26 06:30:44;;;;;;;25.73;16.30;;;6.70;99.90;;;;;;4976194;28;20293;-81
2022/04/26 06:33:11;;;;;;;25.37;16.00;;;6.50;99.90;;;;;;4968275;28;20623;-80
2022/04/26 06:35:40;;;;;;;22.90;13.47;;;6.60;99.90;;;;;;4972642;28;20406;-80
2022/04/26 06:38:08;;;;;;;27.07;16.93;;;6.70;99.90;;;;;;4971735;28;20210;-80
2022/04/26 06:40:35;;;;;;;24.00;15.40;;;6.90;99.90;;;;;;4971956;28;20284;-81
2022/04/26 06:43:02;;;;;;;22.97;15.60;;;7.20;99.90;;;;;;4965571;28;20373;-80
2022/04/26 06:45:29;;;;;;;26.97;16.13;;;7.10;99.90;;;;;;4971403;28;20249;-81
2022/04/26 06:47:55;;;;;;;25.00;16.57;;;7.10;99.90;;;;;;4980606;28;20213;-86
2022/04/26 06:50:23;;;;;;;24.67;16.57;;;7.60;99.90;;;;;;4981202;28;20205;-86
2022/04/26 06:52:50;;;;;;;25.53;16.60;;;7.90;99.90;;;;;;4979987;28;20209;-83
2022/04/26 06:55:18;;;;;;;24.40;17.00;;;8.10;99.90;;;;;;4978473;28;20244;-88
2022/04/26 06:57:46;;;;;;;24.50;16.83;;;8.60;99.90;;;;;;4981276;28;20581;-85
2022/04/26 07:00:14;;;;;;;22.77;15.87;;;9.20;99.90;;;;;;4987400;28;20198;-84
2022/04/26 07:02:41;;;;;;;22.60;15.83;;;9.50;94.90;;;;;;4982429;28;20732;-87
2022/04/26 07:05:09;;;;;;;24.13;16.67;;;9.70;1.00;;;;;;4985812;28;20233;-84
2022/04/26 07:07:36;;;;;;;25.63;17.47;;;10.30;1.00;;;;;;4973626;28;20297;-82
2022/04/26 07:10:04;;;;;;;23.67;16.53;;;10.60;1.00;;;;;;4965973;28;20210;-82
2022/04/26 07:12:32;;;;;;;24.47;16.57;;;11.10;78.60;;;;;;4984252;28;20214;-82
2022/04/26 07:14:59;;;;;;;23.63;17.03;;;10.70;99.90;;;;;;4984975;28;20226;-82
2022/04/26 07:17:26;;;;;;;26.17;17.73;;;10.70;99.90;;;;;;4978088;28;20229;-86
2022/04/26 07:19:53;;;;;;;24.47;17.53;;;9.90;99.90;;;;;;4990761;28;20743;-81
2022/04/26 07:22:19;;;;;;;27.83;18.87;;;9.70;99.90;;;;;;4981847;28;20237;-82
2022/04/26 07:24:46;;;;;;;26.57;18.37;;;10.10;99.90;;;;;;4978071;28;20329;-85
2022/04/26 07:27:13;;;;;;;27.30;19.23;;;10.40;19.50;;;;;;4987119;28;20265;-82
2022/04/26 07:29:43;;;;;;;32.17;20.97;;;11.00;1.00;;;;;;4981424;28;20476;-81
2022/04/26 07:32:11;;;;;;;29.03;20.17;;;11.20;99.90;;;;;;4980326;28;20293;-81
2022/04/26 07:34:37;;;;;;;35.23;23.00;;;10.60;99.90;;;;;;4972927;28;20218;-82
2022/04/26 07:37:04;;;;;;;34.87;24.23;;;10.40;99.90;;;;;;4983029;28;20225;-84
2022/04/26 07:39:33;;;;;;;37.33;24.90;;;10.70;99.90;;;;;;4985914;28;20208;-85
2022/04/26 07:42:01;;;;;;;41.60;27.97;;;10.80;2.80;;;;;;4997307;28;20255;-86
2022/04/26 07:44:28;;;;;;;38.77;25.10;;;10.90;1.00;;;;;;4976820;28;20224;-84
2022/04/26 07:46:57;;;;;;;35.80;24.10;;;11.00;1.00;;;;;;4984535;28;20567;-83
2022/04/26 07:49:24;;;;;;;36.97;24.20;;;11.30;1.00;;;;;;4983188;28;20240;-87
2022/04/26 07:51:52;;;;;;;35.20;24.93;;;11.50;1.00;;;;;;4984848;28;20210;-87
2022/04/26 07:54:19;;;;;;;36.30;24.13;;;11.60;1.00;;;;;;4976104;28;20309;-85
2022/04/26 07:56:47;;;;;;;34.80;23.53;;;11.50;1.00;;;;;;4982165;28;20300;-83
2022/04/26 07:59:15;;;;;;;36.40;24.40;;;11.40;1.00;;;;;;4995019;28;20295;-83
2022/04/26 08:01:42;;;;;;;35.00;24.37;;;11.60;82.30;;;;;;4993123;28;20216;-85
2022/04/26 08:04:11;;;;;;;37.27;25.87;;;11.70;1.00;;;;;;4997422;28;20229;-84
2022/04/26 08:06:38;;;;;;;35.77;24.43;;;11.90;1.00;;;;;;4968690;29;20640;-82
2022/04/26 08:09:04;;;;;;;36.03;24.50;;;11.90;1.00;;;;;;4977427;28;20237;-84
2022/04/26 08:11:31;;;;;;;40.53;26.07;;;11.70;1.00;;;;;;4986529;28;20255;-86
2022/04/26 08:13:59;;;;;;;37.60;25.77;;;11.70;1.00;;;;;;4987349;28;20206;-84
2022/04/26 08:16:26;;;;;;;40.00;27.03;;;12.00;1.00;;;;;;4987601;28;20265;-83
2022/04/26 08:18:53;;;;;;;38.97;26.90;;;12.30;71.00;;;;;;4985734;28;20511;-85
2022/04/26 08:21:22;;;;;;;35.77;24.23;;;12.30;38.50;;;;;;4985513;28;20229;-86
2022/04/26 08:29:19;;;;;;;36.83;25.80;;;12.10;99.90;;;;;;4983915;28;20204;-81
2022/04/26 08:31:46;;;;;;;35.20;24.83;;;12.10;99.90;;;;;;4985236;28;20312;-84
2022/04/26 08:34:12;;;;;;;36.50;25.00;;;12.20;99.90;;;;;;4984737;28;20249;-84
2022/04/26 08:36:41;;;;;;;37.60;25.17;;;12.40;99.90;;;;;;4985992;28;20220;-85
2022/04/26 08:39:08;;;;;;;34.97;24.10;;;12.60;99.90;;;;;;4986138;28;20210;-86
2022/04/26 08:41:35;;;;;;;35.90;23.63;;;12.60;99.90;;;;;;4984396;28;20216;-85
2022/04/26 08:44:02;;;;;;;35.73;25.13;;;12.70;99.90;;;;;;4985140;28;20244;-85
2022/04/26 08:50:59;;;;;;;33.37;23.13;;;12.80;99.90;;;;;;4985653;28;20252;-83
2022/04/26 08:52:08;;;;;;;34.87;24.13;;;13.00;99.90;;;;;;4966612;29;20212;-86
2022/04/26 08:54:35;;;;;;;29.37;20.53;;;13.50;99.90;;;;;;4962251;28;20245;-86
2022/04/26 08:57:03;;;;;;;32.60;22.47;;;13.80;99.90;;;;;;4965137;29;20237;-85
2022/04/26 08:59:31;;;;;;;32.83;21.83;;;13.80;99.90;;;;;;4965157;29;20214;-83
2022/04/26 09:02:18;;;;;;;31.73;21.70;;;14.30;99.90;;;;;;4984780;28;20630;-83
2022/04/26 09:04:45;;;;;;;30.63;21.33;;;14.70;99.90;;;;;;4985578;28;20313;-84
2022/04/26 09:07:28;;;;;;;29.17;21.37;;;14.90;99.90;;;;;;4989818;28;20273;-83
2022/04/26 09:10:05;;;;;;;29.70;21.27;;;15.10;99.90;;;;;;4983157;28;20229;-83
2022/04/26 09:12:32;;;;;;;29.03;20.13;;;15.40;99.90;;;;;;4985504;28;20264;-86
2022/04/26 09:15:16;;;;;;;28.37;19.67;;;16.10;99.90;;;;;;4998795;28;20212;-82
2022/04/26 09:17:43;;;;;;;26.50;19.77;;;16.00;99.90;;;;;;4982132;28;20252;-82
2022/04/26 09:20:10;;;;;;;27.53;18.60;;;15.80;99.90;;;;;;4983069;28;20224;-84
2022/04/26 09:22:39;;;;;;;23.50;16.10;;;15.60;99.90;;;;;;4981703;28;20296;-82
2022/04/26 09:25:08;;;;;;;24.57;16.30;;;15.70;98.80;;;;;;4981831;28;20738;-82
2022/04/26 09:27:37;;;;;;;22.98;16.85;;;16.40;94.10;;;;;;4982131;28;20296;-83
2022/04/26 09:30:09;;;;;;;24.48;16.63;;;17.00;92.70;;;;;;4980660;28;20209;-81
2022/04/26 09:32:46;;;;;;;21.10;15.10;;;16.20;96.70;;;;;;4980086;28;20208;-82
2022/04/26 09:35:19;;;;;;;21.25;14.90;;;16.80;84.70;;;;;;4978943;28;20240;-82
2022/04/26 09:37:47;;;;;;;18.95;12.40;;;16.90;81.70;;;;;;4979980;28;20205;-82
2022/04/26 09:40:14;;;;;;;18.65;13.02;;;17.40;74.50;;;;;;4977520;28;20293;-81
2022/04/26 09:42:41;;;;;;;17.63;13.13;;;17.20;70.70;;;;;;4981916;28;20683;-83
2022/04/26 09:45:10;;;;;;;17.63;11.90;;;16.70;69.10;;;;;;4975894;28;20248;-82
2022/04/26 09:47:38;;;;;;;19.20;12.85;;;16.90;69.60;;;;;;4978558;28;20298;-81
2022/04/26 09:50:06;;;;;;;15.68;10.45;;;16.70;68.80;;;;;;4975776;28;20595;-81
2022/04/26 09:52:33;;;;;;;17.67;13.13;;;17.20;59.00;;;;;;4986184;28;20202;-82
2022/04/26 09:55:04;;;;;;;18.33;12.13;;;16.80;66.50;;;;;;4982860;28;20340;-81
2022/04/26 09:57:34;;;;;;;13.95;10.00;;;16.90;69.20;;;;;;4984165;28;20215;-82
2022/04/26 10:00:02;;;;;;;14.27;10.18;;;17.30;60.70;;;;;;4984151;28;20297;-81
2022/04/26 10:02:32;;;;;;;16.50;11.07;;;17.40;55.70;;;;;;4982270;28;20224;-82
2022/04/26 10:05:04;;;;;;;16.00;11.10;;;17.40;55.10;;;;;;4985270;28;20221;-84
2022/04/26 10:07:35;;;;;;;15.55;10.65;;;17.80;52.90;;;;;;4982710;28;20213;-85
2022/04/26 10:10:06;;;;;;;14.52;9.50;;;18.10;58.20;;;;;;4985692;28;20644;-82
2022/04/26 10:12:35;;;;;;;13.45;9.48;;;17.30;49.50;;;;;;4984727;28;20565;-86
2022/04/26 10:15:03;;;;;;;15.02;10.15;;;17.10;50.20;;;;;;4981886;28;20222;-84
2022/04/26 10:17:32;;;;;;;10.98;8.15;;;17.50;49.50;;;;;;4984200;28;20201;-84
2022/04/26 10:19:59;;;;;;;8.35;5.28;;;17.90;45.20;;;;;;4981522;28;20220;-86
2022/04/26 10:22:58;;;;;;;7.18;5.60;;;18.20;34.30;;;;;;4983219;28;20217;-82
2022/04/26 10:25:27;;;;;;;11.35;7.55;;;17.60;37.40;;;;;;4981597;28;20630;-84
2022/04/26 10:28:23;;;;;;;10.43;7.80;;;17.20;43.10;;;;;;4984069;28;20213;-84
2022/04/26 10:30:51;;;;;;;12.48;8.88;;;17.00;41.10;;;;;;4983867;28;20300;-83
2022/04/26 10:33:38;;;;;;;11.73;8.63;;;16.90;44.70;;;;;;4984909;28;20297;-83
2022/04/26 10:36:34;;;;;;;9.13;7.28;;;17.00;45.50;;;;;;4983149;28;20230;-83
2022/04/26 10:39:30;;;;;;;13.15;7.30;;;17.10;39.20;;;;;;4984021;28;20722;-82
2022/04/26 10:41:59;;;;;;;13.82;9.00;;;17.10;38.50;;;;;;4971258;28;20279;-85
2022/04/26 10:44:30;;;;;;;13.80;8.70;;;17.00;39.40;;;;;;4982820;28;20276;-82
2022/04/26 10:47:23;;;;;;;12.95;8.63;;;16.60;42.10;;;;;;4980808;28;20308;-82
2022/04/26 10:49:51;;;;;;;12.27;8.32;;;16.60;41.80;;;;;;4981570;28;20202;-81
2022/04/26 10:52:40;;;;;;;12.57;9.02;;;16.80;40.40;;;;;;4981532;28;20209;-82
2022/04/26 10:55:10;;;;;;;13.52;9.30;;;17.20;41.90;;;;;;4982249;28;20249;-82
2022/04/26 10:57:40;;;;;;;12.30;9.15;;;17.00;42.40;;;;;;4982601;28;20210;-81
2022/04/26 11:00:09;;;;;;;12.10;9.50;;;16.70;45.30;;;;;;4981498;28;20202;-81
2022/04/26 11:02:39;;;;;;;17.40;9.77;;;17.10;43.20;;;;;;4984376;28;20278;-82
2022/04/26 11:05:08;;;;;;;13.35;9.63;;;17.50;46.00;;;;;;4981766;28;20225;-82
2022/04/26 11:07:36;;;;;;;13.70;9.68;;;17.60;42.10;;;;;;4981903;28;20680;-82
2022/04/26 11:10:04;;;;;;;12.82;9.10;;;17.70;38.80;;;;;;4983023;28;20205;-82
2022/04/26 11:12:33;;;;;;;13.82;9.45;;;18.50;34.20;;;;;;4982536;28;20202;-82
2022/04/26 11:15:05;;;;;;;12.93;9.98;;;19.50;32.20;;;;;;4979543;28;20221;-84
2022/04/26 11:17:32;;;;;;;15.00;9.90;;;18.70;30.00;;;;;;4981356;28;20212;-82
2022/04/26 11:20:00;;;;;;;13.25;9.43;;;18.40;32.10;;;;;;4981409;28;20205;-84
2022/04/26 11:22:28;;;;;;;12.90;9.05;;;19.50;27.40;;;;;;4981944;28;20215;-87
2022/04/26 11:28:03;;;;;;;13.52;9.35;;;18.80;25.70;;;;;;4979906;28;20570;-82
2022/04/26 11:30:36;;;;;;;14.38;9.75;;;18.30;25.40;;;;;;4981871;28;20304;-82
2022/04/26 11:33:05;;;;;;;13.73;10.07;;;17.60;27.80;;;;;;4981052;28;20186;-81
2022/04/26 11:35:32;;;;;;;14.07;10.30;;;17.40;29.70;;;;;;4980088;28;20287;-85
2022/04/26 11:38:03;;;;;;;14.30;9.90;;;17.60;29.80;;;;;;4978790;28;20221;-83
2022/04/26 11:40:31;;;;;;;13.93;9.93;;;17.90;29.60;;;;;;4978853;28;20221;-83
2022/04/26 11:43:06;;;;;;;14.98;9.63;;;18.10;29.00;;;;;;4979253;28;20217;-82
2022/04/26 11:45:35;;;;;;;12.77;9.30;;;18.50;29.60;;;;;;4979234;28;20596;-81
2022/04/26 11:48:02;;;;;;;11.75;9.07;;;17.60;29.40;;;;;;4981345;28;20202;-81
2022/04/26 11:50:30;;;;;;;13.93;9.93;;;17.40;31.30;;;;;;4979656;28;20284;-82
2022/04/26 11:53:01;;;;;;;13.27;9.45;;;17.10;29.50;;;;;;4981066;28;20237;-80
2022/04/26 11:55:30;;;;;;;14.63;9.65;;;16.90;27.80;;;;;;4979822;28;20257;-80
2022/04/26 11:58:14;;;;;;;15.18;9.05;;;17.20;26.30;;;;;;4980692;28;20220;-81
2022/04/26 12:00:59;;;;;;;13.27;8.27;;;17.30;26.40;;;;;;4977833;28;20644;-81
2022/04/26 12:03:28;;;;;;;11.18;6.95;;;18.00;33.30;;;;;;4980054;28;20206;-81
2022/04/26 12:05:58;;;;;;;10.52;6.68;;;18.40;36.10;;;;;;4981152;28;20716;-81
2022/04/26 12:08:26;;;;;;;8.05;6.55;;;19.30;27.10;;;;;;4983823;28;20280;-80
2022/04/26 12:10:53;;;;;;;9.90;6.78;;;19.30;26.00;;;;;;4984333;28;20297;-81
2022/04/26 12:13:32;;;;;;;11.07;6.28;;;19.90;23.90;;;;;;4983300;28;20711;-81
2022/04/26 12:16:15;;;;;;;9.63;6.47;;;19.60;23.70;;;;;;4983730;28;20229;-81
2022/04/26 12:18:53;;;;;;;11.60;7.18;;;19.60;24.00;;;;;;4983096;28;20229;-80
2022/04/26 12:21:20;;;;;;;11.15;7.30;;;19.50;24.70;;;;;;4983351;28;20253;-82
2022/04/26 12:23:48;;;;;;;9.50;6.63;;;18.60;24.50;;;;;;4982525;28;20284;-80
2022/04/26 12:26:15;;;;;;;11.20;7.47;;;18.30;31.80;;;;;;4982654;28;20655;-80
2022/04/26 12:28:49;;;;;;;9.90;6.85;;;18.00;26.80;;;;;;4984236;28;20209;-80
2022/04/26 12:31:26;;;;;;;10.68;7.20;;;18.90;27.30;;;;;;4983200;28;20205;-81
2022/04/26 12:34:12;;;;;;;8.85;6.75;;;18.30;25.70;;;;;;4982768;28;20276;-81
2022/04/26 12:36:57;;;;;;;11.63;7.40;;;18.20;24.10;;;;;;4982738;28;20256;-81
2022/04/26 12:39:25;;;;;;;10.25;7.30;;;17.80;27.50;;;;;;4983244;28;20245;-81
2022/04/26 12:41:54;;;;;;;11.60;8.25;;;18.10;25.10;;;;;;4981581;28;20237;-81
2022/04/26 12:44:21;;;;;;;12.30;8.93;;;17.20;28.50;;;;;;4970738;28;20236;-79
2022/04/26 12:50:27;;;;;;;12.80;8.77;;;16.70;41.60;;;;;;4983457;28;20256;-81
2022/04/26 12:52:42;;;;;;;15.13;10.63;;;14.80;1.00;;;;;;4983940;28;20221;-82
2022/04/26 12:55:09;;;;;;;20.80;11.13;;;14.50;1.00;;;;;;4973034;28;20297;-84
2022/04/26 12:57:47;;;;;;;15.83;10.20;;;13.70;99.90;;;;;;4984636;28;20215;-82
2022/04/26 13:00:17;;;;;;;14.63;9.17;;;13.50;1.00;;;;;;4985074;28;20214;-81
2022/04/26 13:02:45;;;;;;;15.73;9.60;;;13.00;99.90;;;;;;4984969;28;20218;-79
2022/04/26 13:05:12;;;;;;;15.67;10.40;;;13.10;1.00;;;;;;4971748;28;20516;-82
2022/04/26 13:07:39;;;;;;;14.17;9.70;;;12.90;99.90;;;;;;4981710;28;20241;-79
2022/04/26 13:10:07;;;;;;;12.83;7.87;;;12.80;99.90;;;;;;4981207;28;20237;-78
2022/04/26 13:12:34;;;;;;;12.20;7.57;;;12.70;99.90;;;;;;4980645;28;20215;-78
2022/04/26 13:15:01;;;;;;;11.33;7.50;;;12.60;99.90;;;;;;4981932;28;20715;-78
2022/04/26 13:17:28;;;;;;;12.73;7.87;;;12.60;99.90;;;;;;4983978;28;20233;-78
2022/04/26 13:19:56;;;;;;;11.30;7.13;;;12.50;99.90;;;;;;4979029;28;20297;-80
2022/04/26 13:22:23;;;;;;;11.10;7.43;;;12.40;99.90;;;;;;4981115;28;20285;-78
2022/04/26 13:24:51;;;;;;;9.03;6.33;;;12.50;99.90;;;;;;4984364;28;20308;-78
2022/04/26 13:27:19;;;;;;;10.43;7.43;;;12.50;99.90;;;;;;4972790;28;20702;-80
2022/04/26 13:29:48;;;;;;;11.53;7.17;;;12.60;99.90;;;;;;4983939;28;20224;-80
2022/04/26 13:32:15;;;;;;;10.97;7.50;;;12.80;99.90;;;;;;4983565;28;20225;-80
2022/04/26 13:34:42;;;;;;;10.23;6.90;;;12.60;99.90;;;;;;4981696;28;20226;-80
2022/04/26 13:37:10;;;;;;;9.63;6.93;;;12.70;99.90;;;;;;4976026;28;20217;-80
2022/04/26 13:39:39;;;;;;;9.33;5.90;;;12.70;99.90;;;;;;4986157;28;20209;-82
2022/04/26 13:42:06;;;;;;;8.73;6.23;;;12.90;99.90;;;;;;4987557;28;20677;-82
2022/04/26 13:44:33;;;;;;;8.73;6.77;;;13.00;99.90;;;;;;4983411;28;20292;-82
2022/04/26 13:47:02;;;;;;;7.23;6.20;;;13.00;99.90;;;;;;4979868;28;20692;-80
2022/04/26 13:49:29;;;;;;;8.80;6.53;;;13.00;99.90;;;;;;4981378;28;20229;-79
2022/04/26 13:51:56;;;;;;;7.20;5.93;;;13.10;99.90;;;;;;4974052;28;20237;-79
2022/04/26 13:54:27;;;;;;;8.90;6.23;;;13.20;99.90;;;;;;4979870;28;20268;-80
2022/04/26 13:56:54;;;;;;;8.10;6.10;;;13.30;99.90;;;;;;4972099;28;20203;-79
2022/04/26 13:59:22;;;;;;;8.30;6.27;;;13.40;99.90;;;;;;4980644;28;20306;-79
2022/04/26 14:01:49;;;;;;;8.07;6.50;;;13.50;99.90;;;;;;4982009;28;20444;-82
2022/04/26 14:04:16;;;;;;;8.20;6.00;;;13.60;99.90;;;;;;4987964;28;20692;-81
2022/04/26 14:06:43;;;;;;;8.70;5.80;;;13.80;99.90;;;;;;4982251;28;20751;-82
2022/04/26 14:09:10;;;;;;;10.27;6.07;;;13.70;99.90;;;;;;4972821;28;20572;-79
2022/04/26 14:11:38;;;;;;;8.17;5.47;;;14.10;99.90;;;;;;4976095;28;20628;-79
2022/04/26 14:22:30;;;;;;;6.20;4.93;;;13.90;1.00;;;;;;4968746;28;20685;-79
2022/04/26 14:24:58;;;;;;;6.60;5.03;;;14.00;1.00;;;;;;4971917;28;20229;-79
2022/04/26 14:27:27;;;;;;;11.13;5.63;;;14.00;1.00;;;;;;4967309;28;20225;-79
2022/04/26 14:29:54;;;;;;;7.67;5.43;;;14.00;99.90;;;;;;4972392;28;20640;-79
2022/04/26 14:32:20;;;;;;;7.33;6.17;;;14.00;99.90;;;;;;4964892;28;20834;-80
2022/04/26 14:34:48;;;;;;;10.83;6.80;;;14.00;1.00;;;;;;4971076;28;20225;-79
2022/04/26 14:37:15;;;;;;;10.53;7.83;;;14.00;99.90;;;;;;4977010;28;20222;-79
2022/04/26 14:39:42;;;;;;;9.43;6.60;;;14.00;1.00;;;;;;4977720;28;20212;-79
2022/04/26 14:42:10;;;;;;;9.50;7.67;;;14.00;1.00;;;;;;4977665;28;20293;-80
2022/04/26 14:44:38;;;;;;;9.90;7.23;;;13.90;32.80;;;;;;4988084;28;20257;-79
2022/04/26 14:47:09;;;;;;;12.10;7.70;;;14.00;1.00;;;;;;4973662;28;20232;-82
2022/04/26 14:49:36;;;;;;;9.73;7.13;;;14.10;99.90;;;;;;4983187;28;20272;-85
2022/04/26 14:52:04;;;;;;;7.33;6.37;;;13.90;1.00;;;;;;4983965;28;20214;-82
2022/04/26 14:54:31;;;;;;;9.53;6.73;;;14.00;1.00;;;;;;4981550;28;20294;-79
2022/04/26 14:56:58;;;;;;;9.13;6.87;;;14.10;99.90;;;;;;4982061;28;20615;-81
2022/04/26 14:59:25;;;;;;;7.93;5.93;;;14.20;1.00;;;;;;4978285;28;20638;-82
2022/04/26 15:01:54;;;;;;;7.83;6.03;;;14.10;1.00;;;;;;4984398;28;20210;-83
2022/04/26 15:04:23;;;;;;;7.90;5.60;;;14.20;1.00;;;;;;4987203;28;20244;-81
2022/04/26 15:06:51;;;;;;;5.20;4.67;;;14.20;99.90;;;;;;4985011;28;20233;-80
2022/04/26 15:17:34;;;;;;;6.63;4.87;;;14.10;87.50;;;;;;4976004;28;20204;-80
2022/04/26 15:20:03;;;;;;;6.07;4.70;;;14.10;94.00;;;;;;4973984;28;20285;-80
2022/04/26 15:22:30;;;;;;;6.20;5.10;;;14.00;89.80;;;;;;4970786;28;20716;-80
2022/04/26 15:24:57;;;;;;;5.47;4.13;;;14.00;96.90;;;;;;4978906;28;20257;-80
2022/04/26 15:27:24;;;;;;;5.57;4.87;;;14.10;96.00;;;;;;4970051;28;20284;-79
2022/04/26 15:29:51;;;;;;;6.87;4.90;;;14.00;99.90;;;;;;4974632;28;20234;-80
2022/04/26 15:32:19;;;;;;;5.83;4.50;;;14.00;99.90;;;;;;4978191;28;20233;-81
2022/04/26 15:34:48;;;;;;;6.33;5.20;;;13.90;99.70;;;;;;4977194;28;20750;-81
2022/04/26 15:37:15;;;;;;;5.87;4.30;;;13.90;99.50;;;;;;4976775;28;20198;-81
2022/04/26 15:39:44;;;;;;;5.53;4.60;;;13.80;85.70;;;;;;4973599;28;20210;-80
2022/04/26 15:42:11;;;;;;;5.50;4.47;;;13.80;90.50;;;;;;4973517;28;20293;-80
2022/04/26 15:44:38;;;;;;;5.60;4.40;;;13.80;93.30;;;;;;4970338;28;20253;-81
2022/04/26 15:47:05;;;;;;;5.63;4.60;;;13.90;97.00;;;;;;4975077;28;20332;-80
2022/04/26 15:49:32;;;;;;;5.63;4.00;;;13.80;91.90;;;;;;4977544;28;20332;-80
2022/04/26 15:52:00;;;;;;;5.17;4.57;;;13.90;93.40;;;;;;4976959;28;20212;-79
2022/04/26 15:54:28;;;;;;;6.10;4.10;;;13.90;91.00;;;;;;4978665;28;20289;-79
2022/04/26 15:56:55;;;;;;;6.10;4.80;;;14.10;92.70;;;;;;4981777;28;20222;-79
2022/04/26 15:59:21;;;;;;;6.27;4.57;;;14.00;93.60;;;;;;4981387;28;20218;-83
2022/04/26 16:01:51;;;;;;;6.90;4.33;;;14.10;93.90;;;;;;4980665;28;20304;-80
2022/04/26 16:04:19;;;;;;;4.80;4.10;;;14.10;88.20;;;;;;4983316;28;20235;-81
2022/04/26 16:06:46;;;;;;;6.43;4.10;;;14.10;86.40;;;;;;4986885;28;20257;-81
2022/04/26 16:20:30;;;;;;;5.50;4.83;;;14.20;88.10;;;;;;4990863;28;20615;-81
2022/04/26 16:22:58;;;;;;;7.97;4.73;;;14.30;92.60;;;;;;4988077;28;20256;-82
2022/04/26 16:25:27;;;;;;;6.87;5.10;;;14.30;82.80;;;;;;4983251;28;20231;-81
2022/04/26 16:27:54;;;;;;;5.97;4.80;;;14.40;90.10;;;;;;4988549;28;20235;-81
2022/04/26 16:30:21;;;;;;;8.20;5.17;;;14.30;77.90;;;;;;4997372;28;20215;-80
2022/04/26 16:32:48;;;;;;;7.53;5.50;;;14.40;84.80;;;;;;4982049;28;20300;-80
2022/04/26 16:35:15;;;;;;;8.80;6.17;;;14.30;78.80;;;;;;4987365;28;20241;-80
2022/04/26 16:37:42;;;;;;;7.23;5.23;;;14.30;84.90;;;;;;4993599;28;20644;-81
2022/04/26 16:40:10;;;;;;;7.07;5.30;;;14.30;77.80;;;;;;4986966;28;20206;-80
2022/04/26 16:42:39;;;;;;;6.83;5.33;;;14.20;86.80;;;;;;4986337;28;20214;-80
2022/04/26 16:45:08;;;;;;;6.67;5.37;;;14.20;87.20;;;;;;4989840;28;20221;-80
2022/04/26 16:47:35;;;;;;;9.47;6.70;;;14.20;93.20;;;;;;4990116;28;20225;-80
2022/04/26 16:50:02;;;;;;;7.93;6.13;;;14.20;86.20;;;;;;4982810;28;20816;-80
2022/04/26 16:52:28;;;;;;;7.83;5.90;;;14.20;94.40;;;;;;4986519;28;20285;-80
2022/04/26 16:54:55;;;;;;;10.40;6.60;;;14.20;95.20;;;;;;4984052;28;20316;-81
2022/04/26 16:57:23;;;;;;;8.93;6.20;;;14.20;89.50;;;;;;4988832;28;20209;-81
2022/04/26 16:59:51;;;;;;;9.63;7.10;;;14.20;92.00;;;;;;4986961;28;20268;-81
2022/04/26 17:02:18;;;;;;;8.97;6.03;;;14.20;91.10;;;;;;4994835;28;20269;-82
2022/04/26 17:04:45;;;;;;;10.97;6.30;;;14.20;97.40;;;;;;4981905;28;20410;-81
2022/04/26 17:07:12;;;;;;;9.63;6.70;;;14.10;97.60;;;;;;4982121;28;20308;-80